Time;durP1;ratioP1;P1;durP2;ratioP2;P2;SDS_P1;SDS_P2;PMS_P1;PMS_P2;Temp;Humidity;BMP_temperature;BMP_pressure;BME280_temperature;BME280_humidity;BME280_pressure;Samples;Min_cycle;Max_cycle;Signal;HPM_P1;HPM_P2
2021/08/12 00:00:45;;;;;;;4.60;3.57;;;24.80;57.10;;;;;;6266112;23;20369;-87
2021/08/12 00:03:14;;;;;;;3.53;3.23;;;24.80;57.10;;;;;;6291604;22;20379;-87
2021/08/12 00:05:40;;;;;;;4.47;3.70;;;24.80;57.10;;;;;;6240406;23;20392;-87
2021/08/12 00:08:06;;;;;;;4.13;3.60;;;24.80;57.10;;;;;;6267232;22;20409;-87
2021/08/12 00:10:32;;;;;;;3.73;3.37;;;24.80;57.10;;;;;;6291174;22;20468;-87
2021/08/12 00:12:58;;;;;;;3.63;3.27;;;24.80;57.10;;;;;;6290592;22;20384;-87
2021/08/12 00:15:25;;;;;;;3.73;3.10;;;24.80;57.00;;;;;;6291194;22;20377;-86
2021/08/12 00:17:52;;;;;;;4.27;3.30;;;24.90;57.10;;;;;;6265982;23;20192;-86
2021/08/12 00:20:19;;;;;;;5.73;3.80;;;24.90;57.10;;;;;;6265854;23;20381;-87
2021/08/12 00:22:46;;;;;;;4.90;3.83;;;24.80;57.00;;;;;;6265655;23;20386;-86
2021/08/12 00:25:12;;;;;;;4.20;3.23;;;24.80;57.00;;;;;;6290767;22;20734;-87
2021/08/12 00:27:43;;;;;;;4.80;3.87;;;24.90;57.10;;;;;;6265892;23;20421;-86
2021/08/12 00:30:11;;;;;;;4.00;3.23;;;24.90;57.10;;;;;;6240251;23;20192;-86
2021/08/12 00:32:37;;;;;;;5.03;3.60;;;24.90;57.10;;;;;;6264262;22;20423;-87
2021/08/12 00:35:05;;;;;;;4.10;3.53;;;24.80;57.00;;;;;;6266058;23;20377;-87
2021/08/12 00:37:32;;;;;;;3.70;3.30;;;24.90;57.20;;;;;;6266585;22;20380;-87
2021/08/12 00:39:59;;;;;;;4.03;3.63;;;24.80;57.00;;;;;;6264857;23;20389;-87
2021/08/12 00:42:33;;;;;;;3.80;3.40;;;24.90;57.10;;;;;;6292191;22;20392;-87
2021/08/12 00:45:02;;;;;;;4.33;3.30;;;24.90;57.10;;;;;;6267318;22;20397;-87
2021/08/12 00:47:35;;;;;;;4.33;3.90;;;24.80;57.00;;;;;;6266970;22;20445;-87
2021/08/12 00:50:10;;;;;;;3.83;3.30;;;24.90;57.10;;;;;;6265800;23;20393;-87
2021/08/12 00:52:44;;;;;;;5.47;4.37;;;24.80;57.00;;;;;;6265868;23;20862;-86
2021/08/12 00:55:21;;;;;;;3.87;3.43;;;24.80;57.00;;;;;;6265343;23;20361;-89
2021/08/12 00:57:51;;;;;;;4.77;3.67;;;24.80;57.00;;;;;;6267455;22;20373;-89
2021/08/12 01:00:19;;;;;;;4.90;3.80;;;24.80;57.00;;;;;;6291505;22;20862;-86
2021/08/12 01:02:57;;;;;;;3.47;3.17;;;24.80;57.00;;;;;;6264659;23;20389;-87
2021/08/12 01:05:35;;;;;;;3.43;3.07;;;24.80;57.00;;;;;;6261966;22;20448;-87
2021/08/12 01:08:40;;;;;;;3.50;3.13;;;24.80;57.00;;;;;;6265242;23;20417;-87
2021/08/12 01:11:35;;;;;;;3.60;3.30;;;24.90;57.10;;;;;;6266252;22;20376;-86
2021/08/12 01:14:26;;;;;;;4.63;3.33;;;24.80;57.00;;;;;;6267443;22;20346;-86
2021/08/12 01:17:17;;;;;;;3.83;3.43;;;24.80;57.00;;;;;;6263766;23;20376;-87
2021/08/12 01:20:05;;;;;;;4.30;3.40;;;24.80;57.00;;;;;;6266980;23;20372;-87
2021/08/12 01:22:59;;;;;;;;;;;;;;;;;;;;;
2021/08/12 01:25:37;;;;;;;3.83;3.20;;;24.80;57.00;;;;;;6266232;23;20353;-87
2021/08/12 01:28:14;;;;;;;3.80;3.27;;;24.80;57.00;;;;;;6266452;22;20423;-87
2021/08/12 01:31:06;;;;;;;3.53;3.23;;;24.80;57.00;;;;;;6244472;22;20397;-87
2021/08/12 01:33:47;;;;;;;4.10;3.43;;;24.80;56.90;;;;;;6209936;23;20363;-87
2021/08/12 01:36:27;;;;;;;3.67;3.20;;;24.80;56.90;;;;;;6209834;23;20379;-87
2021/08/12 01:39:00;;;;;;;4.60;3.50;;;24.80;56.90;;;;;;6236481;23;20392;-88
2021/08/12 01:41:35;;;;;;;5.33;4.00;;;24.80;56.90;;;;;;6236235;23;20358;-87
2021/08/12 01:44:01;;;;;;;3.90;2.93;;;24.80;56.90;;;;;;6210529;23;20421;-87
2021/08/12 01:46:33;;;;;;;4.23;3.53;;;24.80;56.90;;;;;;6209521;23;20382;-87
2021/08/12 01:49:02;;;;;;;4.07;3.40;;;24.80;56.90;;;;;;6185123;23;20422;-86
2021/08/12 01:51:29;;;;;;;4.07;3.67;;;24.80;57.00;;;;;;6209923;23;20385;-87
2021/08/12 01:53:58;;;;;;;4.20;3.20;;;24.80;56.90;;;;;;6208927;23;20379;-87
2021/08/12 01:56:28;;;;;;;4.03;3.50;;;24.80;56.90;;;;;;6235913;23;20702;-87
2021/08/12 01:59:25;;;;;;;3.90;3.43;;;24.80;56.90;;;;;;6184021;23;20391;-86
2021/08/12 02:01:55;;;;;;;4.13;3.73;;;24.80;56.90;;;;;;6200133;23;20393;-87
2021/08/12 02:04:22;;;;;;;4.20;3.80;;;24.80;56.90;;;;;;6208907;23;20370;-87
2021/08/12 02:06:51;;;;;;;3.27;2.97;;;24.80;56.90;;;;;;6184844;23;20370;-86
2021/08/12 02:09:17;;;;;;;3.77;3.13;;;24.80;57.00;;;;;;6235989;23;20374;-86
2021/08/12 02:11:47;;;;;;;4.00;3.60;;;24.80;56.90;;;;;;6235396;23;20366;-87
2021/08/12 02:14:13;;;;;;;3.43;3.13;;;24.80;56.90;;;;;;6184903;23;20466;-87
2021/08/12 02:16:42;;;;;;;3.60;3.30;;;24.80;56.90;;;;;;6209102;23;20369;-87
2021/08/12 02:19:10;;;;;;;6.03;3.73;;;24.80;56.90;;;;;;6233831;23;20370;-87
2021/08/12 02:21:44;;;;;;;5.20;3.53;;;24.80;56.90;;;;;;6236026;23;20416;-87
2021/08/12 02:24:22;;;;;;;4.87;3.57;;;24.80;56.90;;;;;;6209433;23;20365;-86
2021/08/12 02:27:02;;;;;;;4.57;4.10;;;24.80;56.90;;;;;;6209048;23;20378;-86
2021/08/12 02:29:36;;;;;;;3.87;3.17;;;24.80;56.90;;;;;;6217627;23;20404;-87
2021/08/12 02:32:09;;;;;;;3.63;3.30;;;24.80;56.90;;;;;;6265695;23;20364;-86
2021/08/12 02:34:36;;;;;;;5.20;3.97;;;24.80;56.90;;;;;;6266267;22;20381;-87
2021/08/12 02:37:06;;;;;;;4.50;4.00;;;24.70;56.90;;;;;;6266590;22;20433;-86
2021/08/12 02:39:35;;;;;;;6.40;3.80;;;24.80;57.00;;;;;;6267695;22;20373;-87
2021/08/12 02:42:03;;;;;;;4.67;4.27;;;24.80;57.00;;;;;;6268053;22;20369;-87
2021/08/12 02:44:31;;;;;;;4.10;3.63;;;24.80;56.90;;;;;;6240713;23;20392;-87
2021/08/12 02:47:03;;;;;;;4.43;3.27;;;24.80;56.90;;;;;;6267354;22;20373;-87
2021/08/12 02:49:34;;;;;;;4.30;3.40;;;24.80;56.90;;;;;;6266771;23;20377;-88
2021/08/12 02:52:04;;;;;;;5.90;3.10;;;24.80;56.90;;;;;;6266815;22;20378;-88
2021/08/12 02:54:31;;;;;;;4.63;3.93;;;24.70;56.80;;;;;;6266394;23;20378;-86
2021/08/12 02:56:59;;;;;;;3.77;3.40;;;24.80;56.90;;;;;;6267039;22;20461;-88
2021/08/12 02:59:27;;;;;;;3.93;3.53;;;24.80;56.90;;;;;;6265525;23;20409;-88
2021/08/12 03:02:04;;;;;;;5.57;3.83;;;24.80;56.90;;;;;;6266777;23;20377;-88
2021/08/12 03:04:30;;;;;;;3.10;2.80;;;24.80;56.90;;;;;;6267566;22;20354;-88
2021/08/12 03:06:59;;;;;;;3.90;3.33;;;24.80;56.90;;;;;;6291534;22;20377;-86
2021/08/12 03:09:27;;;;;;;5.33;3.60;;;24.70;56.80;;;;;;6266192;23;20385;-86
2021/08/12 03:11:55;;;;;;;4.00;3.40;;;24.70;56.80;;;;;;6265877;23;20844;-86
2021/08/12 03:14:22;;;;;;;3.50;3.20;;;24.80;56.80;;;;;;6265612;23;20378;-87
2021/08/12 03:16:50;;;;;;;3.23;2.97;;;24.70;56.80;;;;;;6265593;22;20449;-87
2021/08/12 03:19:17;;;;;;;4.20;3.57;;;24.70;56.70;;;;;;6266868;23;20378;-87
2021/08/12 03:22:04;;;;;;;4.33;3.53;;;24.70;56.70;;;;;;6265700;23;20437;-88
2021/08/12 03:24:33;;;;;;;3.40;2.83;;;24.70;56.70;;;;;;6265772;23;20431;-87
2021/08/12 03:27:01;;;;;;;3.10;2.80;;;24.70;56.70;;;;;;6266730;23;20425;-87
2021/08/12 03:29:28;;;;;;;3.60;3.30;;;24.70;56.70;;;;;;6260628;22;20386;-87
2021/08/12 03:31:54;;;;;;;3.50;2.83;;;24.70;56.70;;;;;;6209907;23;20389;-87
2021/08/12 03:34:22;;;;;;;4.50;3.10;;;24.70;56.70;;;;;;6209284;23;20374;-86
2021/08/12 03:36:48;;;;;;;4.17;2.83;;;24.70;56.70;;;;;;6185581;23;20442;-86
2021/08/12 03:39:16;;;;;;;3.80;2.93;;;24.70;56.60;;;;;;6236455;23;20405;-86
2021/08/12 03:41:42;;;;;;;4.23;2.83;;;24.70;56.70;;;;;;6209621;23;20401;-86
2021/08/12 03:44:08;;;;;;;3.63;3.00;;;24.70;56.60;;;;;;6210009;23;20723;-87
2021/08/12 03:46:36;;;;;;;2.40;2.20;;;24.70;56.60;;;;;;6207681;23;20151;-87
2021/08/12 03:49:03;;;;;;;3.40;2.90;;;24.70;56.60;;;;;;6209288;23;20430;-87
2021/08/12 03:51:30;;;;;;;3.40;2.83;;;24.70;56.60;;;;;;6209344;23;20374;-87
2021/08/12 03:53:58;;;;;;;3.57;2.90;;;24.70;56.60;;;;;;6210010;23;20375;-87
2021/08/12 03:56:24;;;;;;;4.37;3.10;;;24.60;56.60;;;;;;6209371;23;20378;-87
2021/08/12 03:58:51;;;;;;;4.73;3.50;;;24.70;56.50;;;;;;6209559;23;20383;-86
2021/08/12 04:01:17;;;;;;;4.27;3.60;;;24.70;56.50;;;;;;6210527;23;20393;-87
2021/08/12 04:03:46;;;;;;;3.80;3.40;;;24.70;56.60;;;;;;6210189;23;20386;-86
2021/08/12 04:06:13;;;;;;;4.27;3.50;;;24.70;56.50;;;;;;6209436;23;20482;-87
2021/08/12 04:09:41;;;;;;;4.60;3.20;;;24.60;56.40;;;;;;6209132;23;20422;-86
2021/08/12 04:12:11;;;;;;;4.13;3.10;;;24.70;56.50;;;;;;6209435;23;20378;-86
2021/08/12 04:14:38;;;;;;;3.87;3.47;;;24.60;56.50;;;;;;6209728;23;20409;-86
2021/08/12 04:17:17;;;;;;;4.40;3.60;;;24.60;56.50;;;;;;6209777;23;20405;-86
2021/08/12 04:19:48;;;;;;;5.60;3.47;;;24.60;56.50;;;;;;6209413;23;20386;-86
2021/08/12 04:22:23;;;;;;;4.20;3.53;;;24.60;56.50;;;;;;6208619;23;20450;-86
2021/08/12 04:24:56;;;;;;;4.50;3.70;;;24.60;56.50;;;;;;6236328;23;20370;-86
2021/08/12 04:27:24;;;;;;;5.13;3.40;;;24.60;56.50;;;;;;6186718;23;20428;-87
2021/08/12 04:29:52;;;;;;;4.60;4.10;;;24.60;56.50;;;;;;6202757;23;20429;-88
2021/08/12 04:32:18;;;;;;;4.43;3.57;;;24.60;56.50;;;;;;6265293;22;20405;-88
2021/08/12 04:34:48;;;;;;;4.30;3.87;;;24.60;57.00;;;;;;6265468;22;20415;-88
2021/08/12 04:37:15;;;;;;;4.40;3.77;;;24.60;56.40;;;;;;6265566;23;20382;-88
2021/08/12 04:39:51;;;;;;;4.87;4.10;;;24.60;56.50;;;;;;6291377;22;20373;-88
2021/08/12 04:42:22;;;;;;;4.93;4.13;;;24.60;56.40;;;;;;6266203;22;20396;-88
2021/08/12 04:44:48;;;;;;;4.30;3.87;;;24.60;56.40;;;;;;6266700;22;20435;-88
2021/08/12 04:47:14;;;;;;;4.03;3.63;;;24.60;56.40;;;;;;6264878;23;20419;-88
2021/08/12 04:49:41;;;;;;;3.97;3.57;;;24.60;56.40;;;;;;6265771;23;20369;-88
2021/08/12 04:52:08;;;;;;;4.37;3.83;;;24.60;56.40;;;;;;6240071;23;20407;-87
2021/08/12 04:54:34;;;;;;;4.87;3.87;;;24.60;56.40;;;;;;6266906;22;20380;-88
2021/08/12 04:57:03;;;;;;;4.33;3.50;;;24.60;56.40;;;;;;6265774;22;20385;-87
2021/08/12 04:59:35;;;;;;;5.33;4.30;;;24.60;56.40;;;;;;6265204;22;20442;-87
2021/08/12 05:02:03;;;;;;;5.43;4.33;;;24.60;56.40;;;;;;6264935;23;20378;-86
2021/08/12 05:04:32;;;;;;;5.10;4.30;;;24.60;56.40;;;;;;6265545;23;20385;-87
2021/08/12 05:07:02;;;;;;;4.10;3.63;;;24.60;56.40;;;;;;6266013;23;20450;-87
2021/08/12 05:09:28;;;;;;;4.60;4.20;;;24.60;56.40;;;;;;6241188;23;20386;-87
2021/08/12 05:11:58;;;;;;;4.80;4.00;;;24.60;56.40;;;;;;6265628;23;20472;-87
2021/08/12 05:14:25;;;;;;;3.50;3.13;;;24.60;56.40;;;;;;6266709;22;20358;-88
2021/08/12 05:16:56;;;;;;;3.80;3.27;;;24.60;56.30;;;;;;6265158;23;20384;-86
2021/08/12 05:19:23;;;;;;;5.37;4.47;;;24.60;56.30;;;;;;6240902;23;20428;-86
2021/08/12 05:21:51;;;;;;;4.77;3.63;;;24.60;56.30;;;;;;6265130;23;20377;-88
2021/08/12 05:24:17;;;;;;;4.07;3.50;;;24.60;56.30;;;;;;6266004;23;20440;-88
2021/08/12 05:26:46;;;;;;;4.13;3.73;;;24.60;56.30;;;;;;6291262;22;20456;-88
2021/08/12 05:29:13;;;;;;;4.80;3.80;;;24.60;56.30;;;;;;6266266;22;20770;-88
2021/08/12 05:31:47;;;;;;;3.93;3.63;;;24.60;56.20;;;;;;6290059;22;20459;-88
2021/08/12 05:34:13;;;;;;;4.63;4.23;;;24.70;56.30;;;;;;6232811;23;20409;-89
2021/08/12 05:36:41;;;;;;;3.83;3.40;;;24.60;56.20;;;;;;6265876;22;20435;-88
2021/08/12 05:39:10;;;;;;;4.50;3.97;;;24.60;56.20;;;;;;6264793;23;20877;-88
2021/08/12 05:41:36;;;;;;;4.13;3.63;;;24.70;56.30;;;;;;6264843;23;20385;-88
2021/08/12 05:44:06;;;;;;;4.20;3.80;;;24.70;56.30;;;;;;6265573;23;20408;-88
2021/08/12 05:46:35;;;;;;;6.30;4.50;;;24.70;56.30;;;;;;6263042;23;20432;-88
2021/08/12 05:52:25;;;;;;;5.00;4.20;;;24.70;56.30;;;;;;6266166;23;20345;-87
2021/08/12 05:55:21;;;;;;;5.47;4.07;;;24.60;56.20;;;;;;6265794;22;20429;-88
2021/08/12 05:57:51;;;;;;;4.53;3.97;;;24.60;56.80;;;;;;6265052;23;20679;-88
2021/08/12 06:00:21;;;;;;;4.10;3.67;;;24.60;56.30;;;;;;6265712;23;20424;-88
2021/08/12 06:02:51;;;;;;;5.70;4.70;;;24.70;56.40;;;;;;6265147;23;20395;-87
2021/08/12 06:05:22;;;;;;;5.00;4.20;;;24.60;56.30;;;;;;6267069;22;20365;-87
2021/08/12 06:07:51;;;;;;;4.17;3.77;;;24.70;56.30;;;;;;6266379;23;20413;-87
2021/08/12 06:10:19;;;;;;;4.73;4.20;;;24.70;56.30;;;;;;6265752;23;20386;-88
2021/08/12 06:12:46;;;;;;;5.00;4.20;;;24.70;56.30;;;;;;6291998;22;20385;-87
2021/08/12 06:15:14;;;;;;;4.33;3.93;;;24.70;56.30;;;;;;6267209;23;20381;-87
2021/08/12 06:21:26;;;;;;;4.80;4.30;;;24.70;56.20;;;;;;6269544;23;20365;-87
2021/08/12 06:24:09;;;;;;;4.20;3.67;;;24.70;56.30;;;;;;6267135;23;20381;-86
2021/08/12 06:26:45;;;;;;;;;;;;;;;;;;;;;
2021/08/12 06:29:12;;;;;;;4.30;3.73;;;24.70;56.40;;;;;;6267669;23;20396;-87
2021/08/12 06:31:40;;;;;;;3.53;3.23;;;24.70;56.90;;;;;;6268106;22;20364;-87
2021/08/12 06:34:07;;;;;;;3.87;3.57;;;24.70;56.40;;;;;;6293487;22;20396;-88
2021/08/12 06:36:33;;;;;;;5.10;4.20;;;24.80;56.40;;;;;;6267152;23;20388;-88
2021/08/12 06:39:00;;;;;;;4.33;3.93;;;24.80;56.40;;;;;;6268197;23;20373;-88
2021/08/12 06:41:29;;;;;;;4.70;3.70;;;24.80;56.40;;;;;;6266264;23;20381;-88
2021/08/12 06:43:55;;;;;;;5.33;3.60;;;24.80;56.30;;;;;;6266843;23;20385;-88
2021/08/12 06:46:23;;;;;;;5.80;4.30;;;24.80;56.40;;;;;;6266390;23;20365;-87
2021/08/12 06:48:48;;;;;;;4.13;3.20;;;24.80;56.30;;;;;;6266757;23;20448;-88
2021/08/12 06:51:15;;;;;;;4.20;3.77;;;24.80;56.30;;;;;;6292567;22;20357;-88
2021/08/12 06:57:03;;;;;;;4.10;3.60;;;24.80;56.30;;;;;;6268561;23;20361;-88
2021/08/12 06:59:30;;;;;;;4.30;3.50;;;24.80;56.30;;;;;;6266682;23;20404;-88
2021/08/12 07:02:13;;;;;;;5.27;3.97;;;24.80;56.40;;;;;;6266181;23;20382;-90
2021/08/12 07:22:23;;;;;;;4.27;3.87;;;24.90;56.50;;;;;;6169344;23;20336;-89
2021/08/12 07:24:58;;;;;;;4.47;3.63;;;24.90;56.60;;;;;;6169968;23;20376;-88
2021/08/12 07:30:29;;;;;;;5.77;3.20;;;24.90;56.50;;;;;;6168663;23;20428;-88
2021/08/12 07:33:04;;;;;;;3.50;3.20;;;24.90;56.60;;;;;;6168060;23;20470;-88
2021/08/12 07:35:30;;;;;;;4.50;3.60;;;24.90;56.60;;;;;;6168867;23;20407;-88
2021/08/12 07:38:01;;;;;;;3.80;3.40;;;24.90;56.60;;;;;;6168672;23;20855;-88
2021/08/12 07:40:28;;;;;;;3.73;3.40;;;24.90;56.50;;;;;;6168651;23;20447;-88
2021/08/12 07:42:57;;;;;;;5.20;3.77;;;25.00;56.60;;;;;;6168580;23;20404;-88
2021/08/12 07:45:26;;;;;;;3.60;3.27;;;25.00;56.60;;;;;;6230003;23;20377;-88
2021/08/12 07:48:04;;;;;;;3.80;3.50;;;25.00;56.60;;;;;;6259958;23;20424;-88
2021/08/12 07:51:19;;;;;;;;;;;;;;;;;;;;;
2021/08/12 07:53:56;;;;;;;4.43;3.90;;;25.00;56.50;;;;;;6253540;22;20401;-87
2021/08/12 07:56:33;;;;;;;7.20;3.30;;;25.00;57.00;;;;;;6261790;22;20721;-88
2021/08/12 07:59:10;;;;;;;4.63;3.90;;;25.00;56.60;;;;;;6259704;23;20474;-88
2021/08/12 08:02:31;;;;;;;6.70;4.33;;;25.00;56.50;;;;;;6259865;23;20384;-87
2021/08/12 08:05:00;;;;;;;4.13;3.60;;;25.10;56.50;;;;;;6246521;23;20385;-88
2021/08/12 08:07:26;;;;;;;5.27;3.70;;;25.00;56.60;;;;;;6259639;23;20484;-87
2021/08/12 08:10:05;;;;;;;4.07;3.67;;;25.00;56.50;;;;;;6285662;22;20381;-87
2021/08/12 08:12:34;;;;;;;4.07;3.60;;;25.10;56.60;;;;;;6235885;23;20225;-87
2021/08/12 08:15:00;;;;;;;5.70;4.40;;;25.10;56.50;;;;;;6261540;23;20361;-87
2021/08/12 08:17:51;;;;;;;7.00;3.93;;;25.10;56.50;;;;;;6285791;22;20457;-87
2021/08/12 08:20:33;;;;;;;;;;;;;;;;;;;;;
2021/08/12 08:23:22;;;;;;;4.00;3.50;;;25.10;56.50;;;;;;6261607;23;20397;-88
2021/08/12 08:30:18;;;;;;;;;;;;;;;;;;;;;
2021/08/12 08:46:46;;;;;;;5.70;4.00;;;25.10;56.70;;;;;;5884473;24;20441;-87
2021/08/12 08:49:31;;;;;;;3.97;3.57;;;25.10;56.70;;;;;;5862635;24;20771;-88
2021/08/12 08:51:58;;;;;;;4.20;3.80;;;25.10;56.60;;;;;;5861649;24;20735;-88
2021/08/12 08:54:31;;;;;;;4.37;3.67;;;25.10;56.60;;;;;;5862708;24;20875;-88
2021/08/12 08:57:06;;;;;;;4.20;3.30;;;25.10;56.60;;;;;;5884799;24;20385;-88
2021/08/12 08:59:38;;;;;;;4.00;3.60;;;25.10;56.60;;;;;;5864983;24;20380;-87
2021/08/12 09:02:12;;;;;;;3.50;3.20;;;25.20;56.70;;;;;;5864566;24;21019;-87
2021/08/12 09:04:40;;;;;;;5.23;4.07;;;25.20;56.60;;;;;;5887834;24;20381;-86
2021/08/12 10:31:22;;;;;;;;;;;;;;;;;;;;;
2021/08/12 10:38:09;;;;;;;3.77;3.33;;;25.30;57.00;;;;;;5968207;24;20416;-90
2021/08/12 11:40:29;;;;;;;;;;;;;;;;;;;;;
2021/08/12 11:50:49;;;;;;;;;;;;;;;;;;;;;
2021/08/12 11:54:01;;;;;;;;;;;;;;;;;;;;;
2021/08/12 12:04:13;;;;;;;6.97;4.10;;;25.30;57.00;;;;;;5836942;24;20374;-92
2021/08/12 12:21:48;;;;;;;;;;;;;;;;;;;;;
2021/08/12 13:12:48;;;;;;;;;;;;;;;;;;;;;
2021/08/12 13:15:16;;;;;;;3.73;3.33;;;25.30;57.20;;;;;;5752252;25;20405;-83
2021/08/12 13:21:42;;;;;;;3.40;3.07;;;25.30;57.10;;;;;;5794705;24;20387;-89
2021/08/12 13:24:22;;;;;;;;;;;;;;;;;;;;;
2021/08/12 13:27:40;;;;;;;;;;;;;;;;;;;;;
2021/08/12 13:30:37;;;;;;;;;;;;;;;;;;;;;
2021/08/12 13:33:26;;;;;;;4.83;4.27;;;25.20;57.10;;;;;;5996343;24;20413;-89
2021/08/12 13:36:22;;;;;;;5.20;2.97;;;25.20;57.10;;;;;;6130326;23;20385;-88
2021/08/12 13:38:53;;;;;;;5.20;3.07;;;25.30;57.10;;;;;;6204259;23;20449;-88
2021/08/12 13:41:21;;;;;;;3.33;3.00;;;25.20;57.10;;;;;;6202488;23;20386;-90
2021/08/12 13:44:00;;;;;;;4.90;3.53;;;25.20;57.10;;;;;;6201453;23;20416;-91
2021/08/12 13:47:00;;;;;;;;;;;;;;;;;;;;;
2021/08/12 13:49:36;;;;;;;4.93;3.47;;;25.30;57.10;;;;;;6229235;23;20414;-90
2021/08/12 13:52:43;;;;;;;;;;;;;;;;;;;;;
2021/08/12 14:49:25;;;;;;;;;;;;;;;;;;;;;
2021/08/12 15:16:44;;;;;;;;;;;;;;;;;;;;;
2021/08/12 15:26:55;;;;;;;;;;;;;;;;;;;;;
2021/08/12 15:36:56;;;;;;;4.53;3.33;;;25.50;57.40;;;;;;5886633;24;20388;-90
2021/08/12 15:43:56;;;;;;;;;;;;;;;;;;;;;
2021/08/12 15:50:42;;;;;;;3.90;3.07;;;25.60;57.40;;;;;;5915462;24;20469;-89
2021/08/12 16:35:38;;;;;;;3.57;3.00;;;25.60;57.40;;;;;;5831537;24;20444;-88
2021/08/12 16:39:01;;;;;;;;;;;;;;;;;;;;;
2021/08/12 16:49:18;;;;;;;3.50;2.90;;;25.60;57.30;;;;;;5807781;24;21014;-89
2021/08/12 16:59:44;;;;;;;;;;;;;;;;;;;;;
2021/08/12 17:06:13;;;;;;;;;;;;;;;;;;;;;
2021/08/12 17:41:19;;;;;;;;;;;;;;;;;;;;;
2021/08/12 17:44:40;;;;;;;;;;;;;;;;;;;;;
2021/08/12 17:52:21;;;;;;;;;;;;;;;;;;;;;
2021/08/12 18:54:45;;;;;;;;;;;;;;;;;;;;;
2021/08/12 19:11:45;;;;;;;;;;;;;;;;;;;;;
2021/08/12 19:52:56;;;;;;;;;;;;;;;;;;;;;
2021/08/12 20:31:39;;;;;;;;;;;;;;;;;;;;;
2021/08/12 20:34:40;;;;;;;;;;;;;;;;;;;;;
2021/08/12 20:41:36;;;;;;;;;;;;;;;;;;;;;
2021/08/12 20:51:10;;;;;;;;;;;;;;;;;;;;;
2021/08/12 21:27:54;;;;;;;3.30;3.00;;;25.60;57.70;;;;;;5897551;24;20442;-85
2021/08/12 21:30:41;;;;;;;4.83;3.40;;;25.60;57.80;;;;;;5921618;24;20454;-85
2021/08/12 21:33:58;;;;;;;;;;;;;;;;;;;;;
2021/08/12 21:40:38;;;;;;;3.13;2.70;;;25.60;57.60;;;;;;6041549;23;20387;-86
2021/08/12 21:46:20;;;;;;;3.67;3.20;;;25.60;57.70;;;;;;6005294;23;20381;-89
2021/08/12 21:49:12;;;;;;;4.50;3.83;;;25.60;57.70;;;;;;6001316;23;20424;-89
2021/08/12 21:52:01;;;;;;;;;;;;;;;;;;;;;
2021/08/12 21:54:40;;;;;;;6.03;3.83;;;25.60;57.70;;;;;;5981202;24;20389;-86
2021/08/12 21:57:38;;;;;;;;;;;;;;;;;;;;;
2021/08/12 22:00:13;;;;;;;3.87;3.40;;;25.60;57.70;;;;;;6000150;24;20366;-86
2021/08/12 22:03:32;;;;;;;6.47;3.90;;;25.60;57.70;;;;;;6000360;24;20373;-86
2021/08/12 22:12:03;;;;;;;3.30;3.00;;;25.60;57.70;;;;;;5917798;24;20357;-86
2021/08/12 22:18:31;;;;;;;;;;;;;;;;;;;;;
2021/08/12 22:21:48;;;;;;;;;;;;;;;;;;;;;
2021/08/12 22:25:13;;;;;;;3.77;3.47;;;25.60;57.70;;;;;;5982027;24;20400;-87
2021/08/12 22:31:45;;;;;;;;;;;;;;;;;;;;;
2021/08/12 22:35:04;;;;;;;;;;;;;;;;;;;;;
2021/08/12 22:37:47;;;;;;;4.53;3.53;;;25.60;57.70;;;;;;6081623;23;20386;-87
2021/08/12 22:40:34;;;;;;;;;;;;;;;;;;;;;
2021/08/12 22:43:11;;;;;;;3.83;3.43;;;25.50;57.70;;;;;;6235022;22;20413;-86
2021/08/12 22:46:13;;;;;;;;;;;;;;;;;;;;;
2021/08/12 22:48:51;;;;;;;4.33;3.93;;;25.60;57.70;;;;;;6258776;22;20435;-87
2021/08/12 22:51:39;;;;;;;3.90;3.20;;;25.60;57.80;;;;;;6264773;23;20376;-86
2021/08/12 22:54:38;;;;;;;3.43;3.07;;;25.60;57.70;;;;;;6264981;23;20433;-87
2021/08/12 22:57:33;;;;;;;5.07;4.10;;;25.60;57.70;;;;;;6266059;23;20393;-87
2021/08/12 23:03:37;;;;;;;5.80;3.77;;;25.60;57.70;;;;;;6129774;23;20401;-89
2021/08/12 23:06:54;;;;;;;;;;;;;;;;;;;;;
2021/08/12 23:09:38;;;;;;;6.93;3.77;;;25.60;57.70;;;;;;6141115;23;20447;-89
2021/08/12 23:12:14;;;;;;;;;;;;;;;;;;;;;
2021/08/12 23:14:46;;;;;;;4.27;3.83;;;25.60;57.80;;;;;;6141901;23;20792;-89
2021/08/12 23:17:18;;;;;;;4.53;3.47;;;25.60;57.80;;;;;;6141710;23;20385;-89
2021/08/12 23:19:57;;;;;;;4.63;3.90;;;25.60;57.70;;;;;;6114191;23;20385;-90
2021/08/12 23:22:46;;;;;;;5.13;4.20;;;25.60;57.70;;;;;;6141571;23;20472;-90
2021/08/12 23:28:41;;;;;;;;;;;;;;;;;;;;;
2021/08/12 23:31:07;;;;;;;4.97;4.20;;;25.60;57.70;;;;;;6142014;23;20377;-90
2021/08/12 23:34:03;;;;;;;;;;;;;;;;;;;;;
2021/08/12 23:39:22;;;;;;;3.63;3.23;;;25.50;57.70;;;;;;6181989;23;20373;-89
2021/08/12 23:44:49;;;;;;;4.13;3.73;;;25.60;57.70;;;;;;6263511;22;20365;-89
2021/08/12 23:47:23;;;;;;;3.30;3.00;;;25.50;57.70;;;;;;6262526;22;20373;-89
2021/08/12 23:50:25;;;;;;;;;;;;;;;;;;;;;
2021/08/12 23:53:17;;;;;;;;;;;;;;;;;;;;;
2021/08/12 23:56:25;;;;;;;4.93;4.13;;;25.60;57.70;;;;;;6262671;23;20373;-90
